Alma, Colorado
Current Conditions -  °F | °C
As of 1:15 PM on Sunday 25 Jan 2015 (Local Time) from KCCU Reporting Station
Broken Clouds Broken Clouds  
Wind Chill: 15°   Ceiling: 1300
Heat Index: 28°   Visibility: 10mi
Dew Point: 23°   Wind: 22mph
Humidity: 80%   Direction: 280°W
Pressure: 30.39"   Gusts: 31mph
Location:  39.28°N, 106.06°W
Report Text: KCCU 252015Z AUTO 28019G27KT 10SM SCT010 BKN013 BKN021 M02/M05 A3039 RMK AO2
Loading
Personal Weather Stations






























Interactive Weather Map New forecast layout! Learn more

10-Day Weather Forecast

Advertisements
Track Severe Weather on mobile